sensor_id;sensor_type;location;lat;lon;timestamp;pressure;altitude;pressure_sealevel;temperature;humidity
42001;BME280;27689;48.390;10.856;2023-02-28T00:00:36;96622.81;;;-1.25;77.87
42001;BME280;27689;48.390;10.856;2023-02-28T00:03:21;96614.22;;;-1.24;77.80
42001;BME280;27689;48.390;10.856;2023-02-28T00:06:06;96622.69;;;-1.22;77.80
42001;BME280;27689;48.390;10.856;2023-02-28T00:08:50;96616.59;;;-1.19;77.32
42001;BME280;27689;48.390;10.856;2023-02-28T00:11:34;96614.94;;;-1.20;76.55
42001;BME280;27689;48.390;10.856;2023-02-28T00:14:18;96613.94;;;-1.18;77.60
42001;BME280;27689;48.390;10.856;2023-02-28T00:17:02;96601.03;;;-1.16;78.16
42001;BME280;27689;48.390;10.856;2023-02-28T00:19:50;96601.88;;;-1.16;78.16
42001;BME280;27689;48.390;10.856;2023-02-28T00:22:34;96607.72;;;-1.12;77.88
42001;BME280;27689;48.390;10.856;2023-02-28T00:25:24;96609.69;;;-1.19;79.13
42001;BME280;27689;48.390;10.856;2023-02-28T00:28:08;96607.13;;;-1.19;78.67
42001;BME280;27689;48.390;10.856;2023-02-28T00:30:52;96599.16;;;-1.33;79.59
42001;BME280;27689;48.390;10.856;2023-02-28T00:33:37;96607.50;;;-1.28;79.44
42001;BME280;27689;48.390;10.856;2023-02-28T00:36:21;96604.94;;;-1.28;78.90
42001;BME280;27689;48.390;10.856;2023-02-28T00:39:05;96610.03;;;-1.26;79.31
42001;BME280;27689;48.390;10.856;2023-02-28T00:41:49;96608.69;;;-1.35;80.20
42001;BME280;27689;48.390;10.856;2023-02-28T00:44:33;96602.50;;;-1.31;80.41
42001;BME280;27689;48.390;10.856;2023-02-28T00:47:17;96609.63;;;-1.37;80.64
42001;BME280;27689;48.390;10.856;2023-02-28T00:50:01;96606.22;;;-1.38;80.96
42001;BME280;27689;48.390;10.856;2023-02-28T00:52:47;96608.81;;;-1.38;80.45
42001;BME280;27689;48.390;10.856;2023-02-28T00:55:31;96601.88;;;-1.36;80.25
42001;BME280;27689;48.390;10.856;2023-02-28T00:58:15;96603.84;;;-1.43;80.84
42001;BME280;27689;48.390;10.856;2023-02-28T01:00:59;96607.31;;;-1.44;81.14
42001;BME280;27689;48.390;10.856;2023-02-28T01:03:43;96595.72;;;-1.54;81.39
42001;BME280;27689;48.390;10.856;2023-02-28T01:06:27;96594.56;;;-1.47;80.73
42001;BME280;27689;48.390;10.856;2023-02-28T01:09:11;96603.94;;;-1.46;80.78
42001;BME280;27689;48.390;10.856;2023-02-28T01:11:56;96597.19;;;-1.48;81.37
42001;BME280;27689;48.390;10.856;2023-02-28T01:14:40;96600.81;;;-1.52;81.38
42001;BME280;27689;48.390;10.856;2023-02-28T01:17:24;96600.81;;;-1.52;81.62
42001;BME280;27689;48.390;10.856;2023-02-28T01:20:08;96604.34;;;-1.55;81.46
42001;BME280;27689;48.390;10.856;2023-02-28T01:22:53;96602.84;;;-1.60;81.79
42001;BME280;27689;48.390;10.856;2023-02-28T01:25:37;96599.19;;;-1.55;81.90
42001;BME280;27689;48.390;10.856;2023-02-28T01:28:21;96600.16;;;-1.57;82.09
42001;BME280;27689;48.390;10.856;2023-02-28T01:31:06;96594.97;;;-1.56;82.60
42001;BME280;27689;48.390;10.856;2023-02-28T01:33:50;96592.56;;;-1.60;81.95
42001;BME280;27689;48.390;10.856;2023-02-28T01:36:34;96592.44;;;-1.57;81.96
42001;BME280;27689;48.390;10.856;2023-02-28T01:39:20;96589.22;;;-1.62;82.92
42001;BME280;27689;48.390;10.856;2023-02-28T01:42:04;96584.06;;;-1.62;82.69
42001;BME280;27689;48.390;10.856;2023-02-28T01:47:42;96579.97;;;-1.66;82.75
42001;BME280;27689;48.390;10.856;2023-02-28T01:50:30;96580.75;;;-1.64;82.46
42001;BME280;27689;48.390;10.856;2023-02-28T01:53:18;96578.31;;;-1.67;82.50
42001;BME280;27689;48.390;10.856;2023-02-28T01:56:05;96575.63;;;-1.64;82.96
42001;BME280;27689;48.390;10.856;2023-02-28T01:58:51;96573.06;;;-1.64;82.16
42001;BME280;27689;48.390;10.856;2023-02-28T02:01:36;96577.31;;;-1.63;82.43
42001;BME280;27689;48.390;10.856;2023-02-28T02:04:23;96578.19;;;-1.64;82.67
42001;BME280;27689;48.390;10.856;2023-02-28T02:07:10;96566.31;;;-1.67;82.15
42001;BME280;27689;48.390;10.856;2023-02-28T02:10:13;96565.66;;;-1.72;82.39
42001;BME280;27689;48.390;10.856;2023-02-28T02:23:02;96555.13;;;-1.66;81.95
42001;BME280;27689;48.390;10.856;2023-02-28T02:25:55;96554.47;;;-1.71;82.22
42001;BME280;27689;48.390;10.856;2023-02-28T02:34:58;96550.28;;;-1.73;82.04
42001;BME280;27689;48.390;10.856;2023-02-28T02:41:03;96549.44;;;-1.74;81.22
42001;BME280;27689;48.390;10.856;2023-02-28T02:44:07;96541.97;;;-1.79;82.56
42001;BME280;27689;48.390;10.856;2023-02-28T02:46:58;96543.59;;;-1.78;82.38
42001;BME280;27689;48.390;10.856;2023-02-28T02:49:51;96540.13;;;-1.77;82.35
42001;BME280;27689;48.390;10.856;2023-02-28T02:52:45;96547.00;;;-1.77;82.47
42001;BME280;27689;48.390;10.856;2023-02-28T02:55:41;96539.38;;;-1.79;82.59
42001;BME280;27689;48.390;10.856;2023-02-28T02:58:31;96550.41;;;-1.77;83.22
42001;BME280;27689;48.390;10.856;2023-02-28T03:01:22;96539.50;;;-1.82;83.27
42001;BME280;27689;48.390;10.856;2023-02-28T03:04:17;96557.38;;;-1.79;82.82
42001;BME280;27689;48.390;10.856;2023-02-28T03:07:02;96556.44;;;-1.78;83.25
42001;BME280;27689;48.390;10.856;2023-02-28T03:09:54;96555.59;;;-1.78;83.43
42001;BME280;27689;48.390;10.856;2023-02-28T03:12:53;96562.19;;;-1.71;82.33
42001;BME280;27689;48.390;10.856;2023-02-28T03:19:03;96560.00;;;-1.80;84.05
42001;BME280;27689;48.390;10.856;2023-02-28T03:28:21;96569.38;;;-1.79;84.04
42001;BME280;27689;48.390;10.856;2023-02-28T03:31:55;96573.66;;;-1.80;83.80
42001;BME280;27689;48.390;10.856;2023-02-28T03:34:29;96565.69;;;-1.73;83.81
42001;BME280;27689;48.390;10.856;2023-02-28T03:37:19;96564.94;;;-1.75;84.08
42001;BME280;27689;48.390;10.856;2023-02-28T03:40:12;96560.81;;;-1.80;84.57
42001;BME280;27689;48.390;10.856;2023-02-28T03:43:02;96574.50;;;-1.79;84.02
42001;BME280;27689;48.390;10.856;2023-02-28T03:45:50;96579.56;;;-1.78;83.89
42001;BME280;27689;48.390;10.856;2023-02-28T03:48:40;96575.97;;;-1.73;83.31
42001;BME280;27689;48.390;10.856;2023-02-28T03:51:28;96581.88;;;-1.71;83.44
42001;BME280;27689;48.390;10.856;2023-02-28T03:54:22;96579.25;;;-1.70;82.71
42001;BME280;27689;48.390;10.856;2023-02-28T03:57:33;96582.97;;;-1.77;83.47
42001;BME280;27689;48.390;10.856;2023-02-28T04:00:43;96591.69;;;-1.81;83.66
42001;BME280;27689;48.390;10.856;2023-02-28T04:03:29;96591.44;;;-1.75;82.98
42001;BME280;27689;48.390;10.856;2023-02-28T04:06:21;96592.22;;;-1.73;82.32
42001;BME280;27689;48.390;10.856;2023-02-28T04:09:08;96589.47;;;-1.68;82.20
42001;BME280;27689;48.390;10.856;2023-02-28T04:11:53;96594.84;;;-1.74;81.99
42001;BME280;27689;48.390;10.856;2023-02-28T04:14:39;96590.59;;;-1.75;82.25
42001;BME280;27689;48.390;10.856;2023-02-28T04:17:23;96590.75;;;-1.79;82.62
42001;BME280;27689;48.390;10.856;2023-02-28T04:20:07;96597.53;;;-1.78;82.81
42001;BME280;27689;48.390;10.856;2023-02-28T04:22:53;96602.91;;;-1.84;83.52
42001;BME280;27689;48.390;10.856;2023-02-28T04:25:37;96601.47;;;-1.91;83.43
42001;BME280;27689;48.390;10.856;2023-02-28T04:28:21;96604.81;;;-1.89;83.91
42001;BME280;27689;48.390;10.856;2023-02-28T04:31:05;96592.56;;;-2.04;83.57
42001;BME280;27689;48.390;10.856;2023-02-28T04:33:49;96605.06;;;-1.95;84.33
42001;BME280;27689;48.390;10.856;2023-02-28T04:36:33;96603.97;;;-1.89;84.63
42001;BME280;27689;48.390;10.856;2023-02-28T04:39:17;96598.00;;;-1.90;84.34
42001;BME280;27689;48.390;10.856;2023-02-28T04:42:02;96595.38;;;-1.88;84.36
42001;BME280;27689;48.390;10.856;2023-02-28T04:44:46;96597.16;;;-1.90;84.48
42001;BME280;27689;48.390;10.856;2023-02-28T04:47:31;96591.34;;;-1.94;84.31
42001;BME280;27689;48.390;10.856;2023-02-28T04:50:15;96598.75;;;-1.86;83.66
42001;BME280;27689;48.390;10.856;2023-02-28T04:52:59;96600.53;;;-1.88;83.85
42001;BME280;27689;48.390;10.856;2023-02-28T04:55:43;96601.38;;;-1.88;83.48
42001;BME280;27689;48.390;10.856;2023-02-28T04:58:27;96599.03;;;-1.94;84.45
42001;BME280;27689;48.390;10.856;2023-02-28T05:01:25;96612.56;;;-1.90;84.61
42001;BME280;27689;48.390;10.856;2023-02-28T05:04:10;96609.97;;;-1.89;84.01
42001;BME280;27689;48.390;10.856;2023-02-28T05:06:53;96605.91;;;-1.94;84.37
42001;BME280;27689;48.390;10.856;2023-02-28T05:09:38;96617.03;;;-1.94;85.08
42001;BME280;27689;48.390;10.856;2023-02-28T05:12:22;96611.94;;;-1.95;84.80
42001;BME280;27689;48.390;10.856;2023-02-28T05:15:10;96622.91;;;-1.92;84.92
42001;BME280;27689;48.390;10.856;2023-02-28T05:17:56;96618.75;;;-1.94;84.71
42001;BME280;27689;48.390;10.856;2023-02-28T05:20:40;96618.31;;;-1.84;83.06
42001;BME280;27689;48.390;10.856;2023-02-28T05:23:23;96614.31;;;-1.91;84.38
42001;BME280;27689;48.390;10.856;2023-02-28T05:26:07;96625.47;;;-1.92;84.75
42001;BME280;27689;48.390;10.856;2023-02-28T05:28:51;96615.34;;;-1.95;84.71
42001;BME280;27689;48.390;10.856;2023-02-28T05:31:36;96612.56;;;-1.90;84.46
42001;BME280;27689;48.390;10.856;2023-02-28T05:34:20;96616.25;;;-1.96;84.72
42001;BME280;27689;48.390;10.856;2023-02-28T05:37:05;96620.28;;;-1.90;84.49
42001;BME280;27689;48.390;10.856;2023-02-28T05:39:49;96608.41;;;-1.93;84.64
42001;BME280;27689;48.390;10.856;2023-02-28T05:42:33;96614.69;;;-2.00;85.58
42001;BME280;27689;48.390;10.856;2023-02-28T05:45:17;96619.75;;;-1.98;85.11
42001;BME280;27689;48.390;10.856;2023-02-28T05:48:01;96615.50;;;-1.99;84.95
42001;BME280;27689;48.390;10.856;2023-02-28T05:50:45;96618.19;;;-2.02;85.39
42001;BME280;27689;48.390;10.856;2023-02-28T05:53:30;96618.97;;;-2.00;85.07
42001;BME280;27689;48.390;10.856;2023-02-28T05:56:13;96618.19;;;-2.02;85.24
42001;BME280;27689;48.390;10.856;2023-02-28T05:58:57;96627.50;;;-2.00;85.39
42001;BME280;27689;48.390;10.856;2023-02-28T06:01:43;96623.16;;;-1.98;85.22
42001;BME280;27689;48.390;10.856;2023-02-28T06:04:31;96620.69;;;-2.01;85.16
42001;BME280;27689;48.390;10.856;2023-02-28T06:07:15;96630.28;;;-2.06;85.70
42001;BME280;27689;48.390;10.856;2023-02-28T06:10:01;96633.00;;;-2.09;86.18
42001;BME280;27689;48.390;10.856;2023-02-28T06:12:45;96627.25;;;-2.16;85.53
42001;BME280;27689;48.390;10.856;2023-02-28T06:15:29;96630.53;;;-2.12;86.20
42001;BME280;27689;48.390;10.856;2023-02-28T06:18:13;96641.41;;;-2.05;85.76
42001;BME280;27689;48.390;10.856;2023-02-28T06:20:58;96640.50;;;-2.04;86.43
42001;BME280;27689;48.390;10.856;2023-02-28T06:23:42;96638.88;;;-2.07;87.02
42001;BME280;27689;48.390;10.856;2023-02-28T06:26:26;96644.94;;;-2.08;87.06
42001;BME280;27689;48.390;10.856;2023-02-28T06:29:10;96649.94;;;-2.05;86.89
42001;BME280;27689;48.390;10.856;2023-02-28T06:31:54;96651.06;;;-2.12;85.75
42001;BME280;27689;48.390;10.856;2023-02-28T06:34:38;96661.00;;;-2.03;85.79
42001;BME280;27689;48.390;10.856;2023-02-28T06:37:22;96670.47;;;-2.05;86.38
42001;BME280;27689;48.390;10.856;2023-02-28T06:40:09;96673.72;;;-2.00;86.07
42001;BME280;27689;48.390;10.856;2023-02-28T06:42:53;96679.69;;;-1.99;86.25
42001;BME280;27689;48.390;10.856;2023-02-28T06:45:41;96681.47;;;-2.01;86.42
42001;BME280;27689;48.390;10.856;2023-02-28T06:48:27;96687.38;;;-1.99;86.05
42001;BME280;27689;48.390;10.856;2023-02-28T06:51:14;96681.31;;;-1.97;86.69
42001;BME280;27689;48.390;10.856;2023-02-28T06:53:58;96682.78;;;-1.91;85.61
42001;BME280;27689;48.390;10.856;2023-02-28T06:56:42;96685.31;;;-1.90;86.03
42001;BME280;27689;48.390;10.856;2023-02-28T06:59:27;96700.56;;;-1.85;85.92
42001;BME280;27689;48.390;10.856;2023-02-28T07:02:11;96687.81;;;-1.88;86.06
42001;BME280;27689;48.390;10.856;2023-02-28T07:04:54;96689.44;;;-1.86;85.29
42001;BME280;27689;48.390;10.856;2023-02-28T07:07:39;96692.91;;;-1.87;85.02
42001;BME280;27689;48.390;10.856;2023-02-28T07:10:27;96695.34;;;-1.84;85.92
42001;BME280;27689;48.390;10.856;2023-02-28T07:13:11;96694.41;;;-1.81;85.93
42001;BME280;27689;48.390;10.856;2023-02-28T07:15:57;96695.94;;;-1.77;86.45
42001;BME280;27689;48.390;10.856;2023-02-28T07:18:41;96687.25;;;-1.73;85.98
42001;BME280;27689;48.390;10.856;2023-02-28T07:21:25;96683.06;;;-1.75;85.77
42001;BME280;27689;48.390;10.856;2023-02-28T07:24:09;96685.28;;;-1.66;84.20
42001;BME280;27689;48.390;10.856;2023-02-28T07:26:54;96681.09;;;-1.69;84.77
42001;BME280;27689;48.390;10.856;2023-02-28T07:29:38;96690.47;;;-1.68;84.77
42001;BME280;27689;48.390;10.856;2023-02-28T07:32:22;96691.22;;;-1.64;84.58
42001;BME280;27689;48.390;10.856;2023-02-28T07:35:06;96684.94;;;-1.57;84.02
42001;BME280;27689;48.390;10.856;2023-02-28T07:37:50;96697.88;;;-1.60;84.57
42001;BME280;27689;48.390;10.856;2023-02-28T07:40:35;96690.97;;;-1.58;85.03
42001;BME280;27689;48.390;10.856;2023-02-28T07:43:19;96695.16;;;-1.56;85.40
42001;BME280;27689;48.390;10.856;2023-02-28T07:46:11;96700.06;;;-1.50;85.42
42001;BME280;27689;48.390;10.856;2023-02-28T07:48:56;96691.56;;;-1.52;85.07
42001;BME280;27689;48.390;10.856;2023-02-28T07:51:43;96691.25;;;-1.44;85.56
42001;BME280;27689;48.390;10.856;2023-02-28T07:54:27;96698.72;;;-1.38;84.86
42001;BME280;27689;48.390;10.856;2023-02-28T07:57:11;96691.09;;;-1.39;84.19
42001;BME280;27689;48.390;10.856;2023-02-28T07:59:55;96693.28;;;-1.30;84.48
42001;BME280;27689;48.390;10.856;2023-02-28T08:02:39;96704.94;;;-1.22;84.08
42001;BME280;27689;48.390;10.856;2023-02-28T08:05:23;96699.88;;;-1.23;82.73
42001;BME280;27689;48.390;10.856;2023-02-28T08:08:07;96698.84;;;-1.19;82.71
42001;BME280;27689;48.390;10.856;2023-02-28T08:10:51;96710.78;;;-1.18;81.42
42001;BME280;27689;48.390;10.856;2023-02-28T08:13:35;96714.00;;;-1.13;81.83
42001;BME280;27689;48.390;10.856;2023-02-28T08:16:19;96706.75;;;-1.24;81.34
42001;BME280;27689;48.390;10.856;2023-02-28T08:19:05;96706.47;;;-1.18;81.42
42001;BME280;27689;48.390;10.856;2023-02-28T08:21:49;96706.34;;;-1.15;80.38
42001;BME280;27689;48.390;10.856;2023-02-28T08:24:33;96713.19;;;-1.14;81.80
42001;BME280;27689;48.390;10.856;2023-02-28T08:27:17;96706.97;;;-1.30;80.10
42001;BME280;27689;48.390;10.856;2023-02-28T08:30:01;96711.03;;;-1.24;79.10
42001;BME280;27689;48.390;10.856;2023-02-28T08:32:45;96705.34;;;-1.32;78.61
42001;BME280;27689;48.390;10.856;2023-02-28T08:35:29;96714.97;;;-1.16;80.66
42001;BME280;27689;48.390;10.856;2023-02-28T08:38:13;96713.16;;;-0.92;81.99
42001;BME280;27689;48.390;10.856;2023-02-28T08:40:59;96711.16;;;-0.85;77.83
42001;BME280;27689;48.390;10.856;2023-02-28T08:43:44;96714.44;;;-0.82;81.02
42001;BME280;27689;48.390;10.856;2023-02-28T08:46:28;96710.28;;;-0.64;80.34
42001;BME280;27689;48.390;10.856;2023-02-28T08:49:12;96714.00;;;-0.51;79.18
42001;BME280;27689;48.390;10.856;2023-02-28T08:51:56;96726.44;;;-0.60;77.64
42001;BME280;27689;48.390;10.856;2023-02-28T08:54:40;96717.09;;;-0.63;75.92
42001;BME280;27689;48.390;10.856;2023-02-28T08:57:25;96706.28;;;-0.51;78.55
42001;BME280;27689;48.390;10.856;2023-02-28T09:00:10;96708.09;;;-0.32;78.26
42001;BME280;27689;48.390;10.856;2023-02-28T09:02:57;96708.31;;;-0.18;78.67
42001;BME280;27689;48.390;10.856;2023-02-28T09:05:41;96723.22;;;-0.06;77.01
42001;BME280;27689;48.390;10.856;2023-02-28T09:08:27;96725.25;;;0.06;75.69
42001;BME280;27689;48.390;10.856;2023-02-28T09:11:11;96706.31;;;0.07;75.48
42001;BME280;27689;48.390;10.856;2023-02-28T09:13:55;96712.78;;;0.53;78.02
42001;BME280;27689;48.390;10.856;2023-02-28T09:16:39;96694.00;;;0.87;76.45
42001;BME280;27689;48.390;10.856;2023-02-28T09:19:23;96699.31;;;1.01;72.78
42001;BME280;27689;48.390;10.856;2023-02-28T09:22:07;96707.22;;;0.98;70.47
42001;BME280;27689;48.390;10.856;2023-02-28T09:24:51;96717.34;;;0.84;69.69
42001;BME280;27689;48.390;10.856;2023-02-28T09:27:35;96713.34;;;0.60;72.81
42001;BME280;27689;48.390;10.856;2023-02-28T09:30:19;96726.44;;;0.91;71.79
42001;BME280;27689;48.390;10.856;2023-02-28T09:33:03;96719.06;;;1.02;72.71
42001;BME280;27689;48.390;10.856;2023-02-28T09:35:48;96733.63;;;1.21;71.54
42001;BME280;27689;48.390;10.856;2023-02-28T09:38:33;96729.94;;;1.44;72.85
42001;BME280;27689;48.390;10.856;2023-02-28T09:41:20;96728.03;;;1.30;70.82
42001;BME280;27689;48.390;10.856;2023-02-28T09:44:05;96734.91;;;1.64;70.32
42001;BME280;27689;48.390;10.856;2023-02-28T09:46:56;96735.09;;;1.94;71.91
42001;BME280;27689;48.390;10.856;2023-02-28T09:53:09;96726.94;;;2.19;68.20
42001;BME280;27689;48.390;10.856;2023-02-28T09:56:08;96737.16;;;2.04;69.03
42001;BME280;27689;48.390;10.856;2023-02-28T09:59:04;96729.13;;;2.42;69.31
42001;BME280;27689;48.390;10.856;2023-02-28T10:01:56;96736.06;;;2.73;69.65
42001;BME280;27689;48.390;10.856;2023-02-28T10:10:40;96745.31;;;3.08;68.53
42001;BME280;27689;48.390;10.856;2023-02-28T10:25:45;96743.16;;;3.31;61.92
42001;BME280;27689;48.390;10.856;2023-02-28T10:28:31;96743.16;;;3.31;63.16
42001;BME280;27689;48.390;10.856;2023-02-28T10:31:18;96740.25;;;3.37;62.41
42001;BME280;27689;48.390;10.856;2023-02-28T10:34:03;96742.47;;;3.43;61.77
42001;BME280;27689;48.390;10.856;2023-02-28T10:36:49;96731.41;;;3.55;63.44
42001;BME280;27689;48.390;10.856;2023-02-28T10:39:36;96749.06;;;2.87;62.19
42001;BME280;27689;48.390;10.856;2023-02-28T10:42:26;96747.50;;;3.60;66.43
42001;BME280;27689;48.390;10.856;2023-02-28T10:45:13;96741.69;;;4.29;64.10
42001;BME280;27689;48.390;10.856;2023-02-28T10:48:04;96738.16;;;4.44;59.53
42001;BME280;27689;48.390;10.856;2023-02-28T10:56:26;96719.72;;;4.35;62.35
42001;BME280;27689;48.390;10.856;2023-02-28T10:59:29;96723.25;;;4.89;61.32
42001;BME280;27689;48.390;10.856;2023-02-28T11:02:33;96738.53;;;3.96;58.38
42001;BME280;27689;48.390;10.856;2023-02-28T11:05:36;96732.22;;;4.56;61.75
42001;BME280;27689;48.390;10.856;2023-02-28T11:08:20;96727.78;;;4.58;58.40
42001;BME280;27689;48.390;10.856;2023-02-28T11:11:05;96722.88;;;5.08;61.63
42001;BME280;27689;48.390;10.856;2023-02-28T11:13:55;96724.38;;;4.85;56.31
42001;BME280;27689;48.390;10.856;2023-02-28T11:16:40;96726.66;;;4.34;61.77
42001;BME280;27689;48.390;10.856;2023-02-28T11:19:25;96727.94;;;4.96;61.47
42001;BME280;27689;48.390;10.856;2023-02-28T11:22:10;96718.53;;;4.81;57.27
42001;BME280;27689;48.390;10.856;2023-02-28T11:24:57;96732.47;;;4.66;56.65
42001;BME280;27689;48.390;10.856;2023-02-28T11:27:48;96732.03;;;4.03;58.13
42001;BME280;27689;48.390;10.856;2023-02-28T11:33:28;96731.63;;;4.66;59.15
42001;BME280;27689;48.390;10.856;2023-02-28T11:36:33;96723.38;;;4.73;61.22
42001;BME280;27689;48.390;10.856;2023-02-28T11:39:18;96725.44;;;5.22;60.57
42001;BME280;27689;48.390;10.856;2023-02-28T11:53:51;96712.19;;;5.00;55.63
42001;BME280;27689;48.390;10.856;2023-02-28T11:56:44;96709.59;;;4.58;58.07
42001;BME280;27689;48.390;10.856;2023-02-28T11:59:56;96703.28;;;4.63;56.97
42001;BME280;27689;48.390;10.856;2023-02-28T12:05:50;96706.75;;;5.17;57.99
42001;BME280;27689;48.390;10.856;2023-02-28T12:11:38;96713.66;;;4.48;58.88
42001;BME280;27689;48.390;10.856;2023-02-28T12:14:50;96713.47;;;4.92;57.06
42001;BME280;27689;48.390;10.856;2023-02-28T12:21:04;96707.56;;;5.57;56.49
42001;BME280;27689;48.390;10.856;2023-02-28T12:26:58;96694.44;;;5.46;55.61
42001;BME280;27689;48.390;10.856;2023-02-28T12:30:08;96691.56;;;5.23;54.80
42001;BME280;27689;48.390;10.856;2023-02-28T12:33:11;96685.25;;;5.27;55.30
42001;BME280;27689;48.390;10.856;2023-02-28T12:35:59;96683.31;;;5.56;55.73
42001;BME280;27689;48.390;10.856;2023-02-28T12:38:48;96692.91;;;5.81;55.90
42001;BME280;27689;48.390;10.856;2023-02-28T12:41:46;96678.91;;;5.96;53.55
42001;BME280;27689;48.390;10.856;2023-02-28T12:44:36;96676.41;;;6.20;56.33
42001;BME280;27689;48.390;10.856;2023-02-28T12:47:24;96677.94;;;6.35;55.83
42001;BME280;27689;48.390;10.856;2023-02-28T12:50:10;96676.19;;;5.98;53.41
42001;BME280;27689;48.390;10.856;2023-02-28T12:59:46;96672.53;;;6.26;55.05
42001;BME280;27689;48.390;10.856;2023-02-28T13:09:02;96660.25;;;6.64;53.47
42001;BME280;27689;48.390;10.856;2023-02-28T13:11:54;96657.97;;;6.84;54.22
42001;BME280;27689;48.390;10.856;2023-02-28T13:14:39;96659.31;;;7.13;54.15
42001;BME280;27689;48.390;10.856;2023-02-28T13:17:24;96658.25;;;7.16;52.40
42001;BME280;27689;48.390;10.856;2023-02-28T13:20:18;96664.22;;;6.94;52.05
42001;BME280;27689;48.390;10.856;2023-02-28T13:23:03;96663.63;;;7.01;52.46
42001;BME280;27689;48.390;10.856;2023-02-28T13:25:51;96664.03;;;7.08;52.48
42001;BME280;27689;48.390;10.856;2023-02-28T13:31:32;96667.81;;;6.80;51.96
42001;BME280;27689;48.390;10.856;2023-02-28T13:34:17;96664.91;;;6.72;52.60
42001;BME280;27689;48.390;10.856;2023-02-28T13:43:08;96666.72;;;6.22;54.15
42001;BME280;27689;48.390;10.856;2023-02-28T13:46:10;96669.97;;;6.00;55.10
42001;BME280;27689;48.390;10.856;2023-02-28T13:48:54;96666.72;;;5.84;54.56
42001;BME280;27689;48.390;10.856;2023-02-28T13:51:42;96667.00;;;5.67;55.38
42001;BME280;27689;48.390;10.856;2023-02-28T13:57:23;96673.75;;;5.31;55.22
42001;BME280;27689;48.390;10.856;2023-02-28T14:03:22;96673.75;;;5.31;55.13
42001;BME280;27689;48.390;10.856;2023-02-28T14:09:18;96678.53;;;4.98;54.08
42001;BME280;27689;48.390;10.856;2023-02-28T14:15:39;96674.97;;;5.26;55.75
42001;BME280;27689;48.390;10.856;2023-02-28T14:18:30;96668.94;;;5.25;54.58
42001;BME280;27689;48.390;10.856;2023-02-28T14:24:10;96676.72;;;5.25;55.76
42001;BME280;27689;48.390;10.856;2023-02-28T14:36:21;96664.34;;;5.16;55.87
42001;BME280;27689;48.390;10.856;2023-02-28T14:39:15;96674.91;;;5.01;55.75
42001;BME280;27689;48.390;10.856;2023-02-28T14:42:00;96673.75;;;5.05;55.50
42001;BME280;27689;48.390;10.856;2023-02-28T14:44:53;96672.41;;;4.99;56.15
42001;BME280;27689;48.390;10.856;2023-02-28T14:47:38;96679.63;;;4.94;56.00
42001;BME280;27689;48.390;10.856;2023-02-28T14:50:30;96680.06;;;4.88;55.73
42001;BME280;27689;48.390;10.856;2023-02-28T14:53:21;96668.19;;;4.84;56.51
42001;BME280;27689;48.390;10.856;2023-02-28T14:56:05;96665.03;;;4.79;56.39
42001;BME280;27689;48.390;10.856;2023-02-28T14:58:52;96672.44;;;4.85;56.83
42001;BME280;27689;48.390;10.856;2023-02-28T15:01:37;96680.97;;;4.87;57.15
42001;BME280;27689;48.390;10.856;2023-02-28T15:04:26;96668.28;;;4.82;56.13
42001;BME280;27689;48.390;10.856;2023-02-28T15:07:14;96661.63;;;4.78;57.16
42001;BME280;27689;48.390;10.856;2023-02-28T15:10:20;96677.69;;;4.71;55.96
42001;BME280;27689;48.390;10.856;2023-02-28T15:13:12;96670.09;;;4.68;56.85
42001;BME280;27689;48.390;10.856;2023-02-28T15:16:04;96671.59;;;4.57;56.16
42001;BME280;27689;48.390;10.856;2023-02-28T15:19:00;96679.41;;;4.43;55.92
42001;BME280;27689;48.390;10.856;2023-02-28T15:21:53;96682.03;;;4.29;55.26
42001;BME280;27689;48.390;10.856;2023-02-28T15:24:47;96688.41;;;4.23;57.03
42001;BME280;27689;48.390;10.856;2023-02-28T15:27:33;96700.00;;;4.18;57.10
42001;BME280;27689;48.390;10.856;2023-02-28T15:36:17;96687.78;;;4.20;58.29
42001;BME280;27689;48.390;10.856;2023-02-28T15:39:28;96704.34;;;4.17;57.86
42001;BME280;27689;48.390;10.856;2023-02-28T15:42:26;96704.44;;;4.16;59.06
42001;BME280;27689;48.390;10.856;2023-02-28T15:45:47;96696.88;;;4.13;59.28
42001;BME280;27689;48.390;10.856;2023-02-28T15:48:34;96701.47;;;4.08;60.08
42001;BME280;27689;48.390;10.856;2023-02-28T15:51:29;96705.47;;;3.99;59.00
42001;BME280;27689;48.390;10.856;2023-02-28T15:54:33;96703.81;;;3.84;58.87
42001;BME280;27689;48.390;10.856;2023-02-28T15:57:24;96699.44;;;3.84;59.30
42001;BME280;27689;48.390;10.856;2023-02-28T16:00:13;96699.34;;;3.86;60.37
42001;BME280;27689;48.390;10.856;2023-02-28T16:02:59;96696.47;;;3.76;60.41
42001;BME280;27689;48.390;10.856;2023-02-28T16:05:43;96706.97;;;3.59;58.66
42001;BME280;27689;48.390;10.856;2023-02-28T16:08:27;96710.69;;;3.55;59.95
42001;BME280;27689;48.390;10.856;2023-02-28T16:11:11;96703.66;;;3.57;60.98
42001;BME280;27689;48.390;10.856;2023-02-28T16:13:56;96701.50;;;3.49;59.90
42001;BME280;27689;48.390;10.856;2023-02-28T16:16:45;96695.66;;;3.46;60.84
42001;BME280;27689;48.390;10.856;2023-02-28T16:19:31;96707.75;;;3.31;60.11
42001;BME280;27689;48.390;10.856;2023-02-28T16:22:15;96710.25;;;3.33;60.91
42001;BME280;27689;48.390;10.856;2023-02-28T16:24:59;96703.94;;;3.23;60.97
42001;BME280;27689;48.390;10.856;2023-02-28T16:27:45;96710.59;;;3.27;61.91
42001;BME280;27689;48.390;10.856;2023-02-28T16:30:32;96709.13;;;3.23;61.72
42001;BME280;27689;48.390;10.856;2023-02-28T16:33:17;96713.78;;;3.16;61.69
42001;BME280;27689;48.390;10.856;2023-02-28T16:36:00;96718.91;;;3.17;62.65
42001;BME280;27689;48.390;10.856;2023-02-28T16:38:45;96713.97;;;3.13;62.82
42001;BME280;27689;48.390;10.856;2023-02-28T16:41:29;96717.00;;;3.05;62.14
42001;BME280;27689;48.390;10.856;2023-02-28T16:44:24;96721.34;;;3.05;62.88
42001;BME280;27689;48.390;10.856;2023-02-28T16:47:10;96720.84;;;2.98;63.75
42001;BME280;27689;48.390;10.856;2023-02-28T16:49:55;96730.56;;;2.95;63.84
42001;BME280;27689;48.390;10.856;2023-02-28T16:52:39;96724.94;;;2.87;63.33
42001;BME280;27689;48.390;10.856;2023-02-28T16:55:24;96721.53;;;2.86;63.96
42001;BME280;27689;48.390;10.856;2023-02-28T16:58:15;96724.28;;;2.83;64.41
42001;BME280;27689;48.390;10.856;2023-02-28T17:00:59;96731.63;;;2.75;64.71